createdAt,value
2023-01-28T00:03:52.057Z,2.01
2023-01-28T00:08:55.851Z,1.99
2023-01-28T00:13:57.954Z,2.01
2023-01-28T00:18:59.552Z,1.97
2023-01-28T00:24:01.881Z,1.95
2023-01-28T00:29:04.252Z,1.95
2023-01-28T00:34:05.807Z,1.98
2023-01-28T00:39:07.407Z,1.90
2023-01-28T00:44:09.184Z,1.83
2023-01-28T00:49:11.143Z,1.85
2023-01-28T00:54:13.704Z,1.90
2023-01-28T00:59:15.396Z,1.89
2023-01-28T01:04:26.421Z,1.91
2023-01-28T01:09:28.171Z,1.88
2023-01-28T01:14:29.792Z,1.82
2023-01-28T01:19:31.608Z,1.86
2023-01-28T01:24:34.247Z,1.92
2023-01-28T01:29:35.968Z,1.92
2023-01-28T01:34:37.531Z,1.75
2023-01-28T01:39:39.142Z,1.72
2023-01-28T01:45:04.877Z,1.79
2023-01-28T01:50:29.684Z,1.88
2023-01-28T01:55:36.653Z,1.90
2023-01-28T02:00:41.844Z,1.90
2023-01-28T02:05:43.767Z,1.89
2023-01-28T02:10:50.910Z,1.73
2023-01-28T02:15:53.081Z,1.79
2023-01-28T02:21:10.429Z,1.79
2023-01-28T02:26:39.433Z,1.80
2023-01-28T02:31:52.834Z,1.71
2023-01-28T02:37:23.632Z,1.74
2023-01-28T02:42:25.129Z,1.74
2023-01-28T02:47:45.237Z,1.77
2023-01-28T02:53:27.359Z,1.72
2023-01-28T02:58:42.300Z,1.64
2023-01-28T03:04:01.912Z,1.73
2023-01-28T03:09:25.535Z,1.76
2023-01-28T03:14:46.951Z,1.73
2023-01-28T03:20:07.247Z,1.65
2023-01-28T03:25:29.610Z,1.57
2023-01-28T03:30:59.457Z,1.55
2023-01-28T03:36:20.630Z,1.60
2023-01-28T03:41:24.922Z,1.63
2023-01-28T03:46:26.414Z,1.70
2023-01-28T03:51:28.019Z,1.66
2023-01-28T03:56:32.523Z,1.67
2023-01-28T04:01:34.151Z,1.66
2023-01-28T04:06:35.693Z,1.65
2023-01-28T04:11:37.231Z,1.62
2023-01-28T04:16:38.854Z,1.48
2023-01-28T04:21:40.406Z,1.43
2023-01-28T04:26:41.924Z,1.50
2023-01-28T04:31:43.567Z,1.39
2023-01-28T04:36:45.164Z,1.35
2023-01-28T04:41:46.709Z,1.41
2023-01-28T04:46:48.281Z,1.41
2023-01-28T04:51:49.803Z,1.48
2023-01-28T04:56:51.541Z,1.48
2023-01-28T05:01:53.125Z,1.47
2023-01-28T05:06:54.628Z,1.36
2023-01-28T05:11:56.178Z,1.44
2023-01-28T05:16:58.503Z,1.53
2023-01-28T05:22:00.077Z,1.52
2023-01-28T05:27:01.625Z,1.51
2023-01-28T05:32:03.374Z,1.55
2023-01-28T05:37:04.957Z,1.56
2023-01-28T05:42:06.487Z,1.55
2023-01-28T05:47:08.308Z,1.52
2023-01-28T05:52:09.853Z,1.52
2023-01-28T05:57:11.372Z,1.60
2023-01-28T06:02:12.958Z,1.63
2023-01-28T06:07:15.858Z,1.62
2023-01-28T06:12:17.473Z,1.60
2023-01-28T06:17:19.009Z,1.59
2023-01-28T06:22:20.502Z,1.59
2023-01-28T06:27:21.972Z,1.57
2023-01-28T06:32:23.496Z,1.56
2023-01-28T06:37:26.280Z,1.60
2023-01-28T06:42:27.904Z,1.60
2023-01-28T06:47:29.456Z,1.69
2023-01-28T06:52:30.931Z,1.69
2023-01-28T06:57:34.029Z,1.64
2023-01-28T07:02:35.539Z,1.62
2023-01-28T07:07:37.141Z,1.64
2023-01-28T07:12:38.830Z,1.63
2023-01-28T07:17:41.724Z,1.63
2023-01-28T07:22:44.495Z,1.62
2023-01-28T07:27:48.414Z,1.56
2023-01-28T07:32:54.567Z,1.54
2023-01-28T07:37:58.517Z,1.46
2023-01-28T07:43:00.867Z,1.25
2023-01-28T07:48:05.539Z,1.16
2023-01-28T07:53:10.635Z,1.17
2023-01-28T07:58:12.706Z,1.13
2023-01-28T08:03:15.761Z,1.05
2023-01-28T08:08:17.690Z,1.09
2023-01-28T08:13:20.003Z,1.03
2023-01-28T08:18:21.515Z,0.99
2023-01-28T08:23:24.362Z,1.05
2023-01-28T08:28:26.263Z,1.17
2023-01-28T08:33:27.835Z,1.36
2023-01-28T08:38:29.333Z,1.58
2023-01-28T08:43:30.857Z,1.68
2023-01-28T08:48:32.345Z,1.85
2023-01-28T08:53:33.867Z,2.02
2023-01-28T08:58:35.391Z,2.21
2023-01-28T09:03:36.899Z,2.31
2023-01-28T09:08:38.524Z,2.50
2023-01-28T09:13:40.099Z,2.56
2023-01-28T09:18:41.726Z,2.74
2023-01-28T09:23:43.373Z,2.89
2023-01-28T09:28:44.900Z,2.95
2023-01-28T09:33:47.459Z,3.06
2023-01-28T09:38:48.966Z,3.19
2023-01-28T09:43:59.581Z,3.24
2023-01-28T09:49:05.170Z,3.56
2023-01-28T09:54:17.299Z,3.54
2023-01-28T09:59:22.093Z,3.55
2023-01-28T10:04:38.767Z,3.55
2023-01-28T10:10:03.305Z,3.82
2023-01-28T10:15:20.923Z,3.82
2023-01-28T10:20:30.951Z,3.96
2023-01-28T10:25:33.509Z,4.34
2023-01-28T10:30:40.666Z,4.58
2023-01-28T10:35:43.643Z,4.86
2023-01-28T10:40:48.018Z,4.75
2023-01-28T10:45:55.498Z,4.72
2023-01-28T10:51:02.014Z,4.84
2023-01-28T10:56:07.421Z,4.71
2023-01-28T11:01:08.963Z,4.71
2023-01-28T11:06:24.765Z,4.68
2023-01-28T11:11:28.256Z,4.73
2023-01-28T11:16:29.885Z,4.55
2023-01-28T11:21:32.827Z,4.79
2023-01-28T11:26:38.098Z,4.79
2023-01-28T11:31:44.201Z,4.87
2023-01-28T11:36:54.281Z,4.90
2023-01-28T11:42:10.982Z,5.40
2023-01-28T11:47:33.581Z,5.74
2023-01-28T11:53:16.784Z,5.84
2023-01-28T11:58:33.207Z,5.60
2023-01-28T12:03:51.795Z,5.41
2023-01-28T12:09:16.793Z,5.23
2023-01-28T12:14:58.152Z,4.90
2023-01-28T12:20:38.935Z,4.81
2023-01-28T12:26:05.139Z,4.88
2023-01-28T12:31:43.742Z,4.89
2023-01-28T12:37:17.741Z,4.58
2023-01-28T12:42:31.022Z,4.60
2023-01-28T12:47:38.264Z,4.66
2023-01-28T12:52:45.230Z,4.69
2023-01-28T12:57:48.834Z,4.52
2023-01-28T13:03:11.498Z,4.56
2023-01-28T13:08:23.073Z,4.54
2023-01-28T13:13:32.188Z,4.56
2023-01-28T13:18:43.989Z,4.59
2023-01-28T13:23:50.323Z,4.63
2023-01-28T13:28:53.586Z,4.70
2023-01-28T13:33:55.015Z,4.65
2023-01-28T13:39:05.155Z,4.73
2023-01-28T13:44:27.486Z,4.95
2023-01-28T13:49:44.573Z,5.18
2023-01-28T13:54:55.136Z,5.22
2023-01-28T14:00:11.504Z,5.24
2023-01-28T14:05:36.390Z,5.23
2023-01-28T14:10:55.491Z,5.21
2023-01-28T14:15:59.206Z,5.04
2023-01-28T14:21:03.369Z,4.87
2023-01-28T14:26:10.929Z,4.85
2023-01-28T14:31:23.356Z,4.87
2023-01-28T14:36:25.322Z,4.75
2023-01-28T14:41:28.532Z,4.56
2023-01-28T14:46:32.858Z,4.52
2023-01-28T14:52:19.533Z,4.56
2023-01-28T14:57:33.820Z,4.57
2023-01-28T15:02:35.409Z,4.59
2023-01-28T15:07:37.125Z,4.58
2023-01-28T15:12:41.345Z,4.63
2023-01-28T15:17:42.917Z,4.64
2023-01-28T15:22:45.014Z,4.68
2023-01-28T15:27:47.555Z,4.62
2023-01-28T15:33:22.177Z,4.59
2023-01-28T15:38:26.699Z,4.56
2023-01-28T15:43:35.783Z,4.50
2023-01-28T15:48:41.966Z,4.41
2023-01-28T15:53:46.683Z,4.37
2023-01-28T15:58:48.225Z,4.29
2023-01-28T16:04:06.942Z,4.28
2023-01-28T16:09:23.636Z,4.35
2023-01-28T16:14:28.054Z,4.36
2023-01-28T16:19:38.721Z,4.26
2023-01-28T16:24:49.546Z,4.24
2023-01-28T16:29:51.216Z,4.20
2023-01-28T16:34:52.753Z,4.12
2023-01-28T16:39:54.211Z,4.15
2023-01-28T16:44:58.806Z,4.11
2023-01-28T16:50:00.401Z,4.11
2023-01-28T16:55:03.180Z,4.06
2023-01-28T17:00:06.398Z,4.03
2023-01-28T17:05:08.338Z,4.06
2023-01-28T17:10:10.682Z,4.09
2023-01-28T17:15:12.211Z,3.95
2023-01-28T17:20:13.757Z,3.86
2023-01-28T17:25:15.678Z,3.85
2023-01-28T17:30:20.852Z,3.83
2023-01-28T17:35:22.345Z,3.85
2023-01-28T17:40:24.277Z,3.90
2023-01-28T17:45:25.864Z,3.90
2023-01-28T17:50:27.523Z,3.80
2023-01-28T17:55:29.603Z,3.82
2023-01-28T18:00:32.122Z,3.86
2023-01-28T18:05:33.606Z,3.90
2023-01-28T18:10:35.590Z,3.88
2023-01-28T18:15:37.058Z,3.79
2023-01-28T18:20:38.614Z,3.77
2023-01-28T18:25:40.547Z,3.82
2023-01-28T18:30:42.050Z,3.80
2023-01-28T18:35:44.536Z,3.80
2023-01-28T18:40:46.922Z,3.64
2023-01-28T18:45:49.448Z,3.62
2023-01-28T18:50:52.462Z,3.67
2023-01-28T18:55:53.959Z,3.67
2023-01-28T19:00:55.554Z,3.71
2023-01-28T19:05:57.134Z,3.71
2023-01-28T19:10:58.678Z,3.68
2023-01-28T19:16:04.406Z,3.72
2023-01-28T19:21:06.465Z,3.72
2023-01-28T19:26:08.030Z,3.71
2023-01-28T19:31:09.941Z,3.65
2023-01-28T19:36:11.939Z,3.69
2023-01-28T19:41:16.151Z,3.70
2023-01-28T19:46:18.469Z,3.70
2023-01-28T19:51:20.785Z,3.70
2023-01-28T19:56:24.790Z,3.63
2023-01-28T20:01:30.196Z,3.65
2023-01-28T20:06:33.689Z,3.65
2023-01-28T20:11:35.799Z,3.67
2023-01-28T20:16:37.609Z,3.69
2023-01-28T20:21:39.226Z,3.60
2023-01-28T20:26:43.019Z,3.64
2023-01-28T20:31:44.712Z,3.67
2023-01-28T20:36:46.300Z,3.68
2023-01-28T20:41:47.983Z,3.66
2023-01-28T20:46:49.509Z,3.66
2023-01-28T20:51:51.001Z,3.63
2023-01-28T20:56:53.022Z,3.65
2023-01-28T21:01:54.613Z,3.65
2023-01-28T21:06:56.169Z,3.64
2023-01-28T21:11:58.740Z,3.57
2023-01-28T21:17:00.330Z,3.59
2023-01-28T21:22:01.966Z,3.58
2023-01-28T21:27:03.569Z,3.61
2023-01-28T21:32:05.099Z,3.61
2023-01-28T21:37:06.603Z,3.60
2023-01-28T21:42:08.162Z,3.62
2023-01-28T21:47:09.818Z,3.57
2023-01-28T21:52:12.493Z,3.65
2023-01-28T21:57:14.032Z,3.67
2023-01-28T22:02:15.673Z,3.64
2023-01-28T22:07:18.965Z,3.61
2023-01-28T22:12:22.504Z,3.63
2023-01-28T22:17:24.969Z,3.63
2023-01-28T22:22:26.568Z,3.65
2023-01-28T22:27:28.930Z,3.55
2023-01-28T22:32:30.519Z,3.50
2023-01-28T22:37:32.044Z,3.55
2023-01-28T22:42:33.511Z,3.59
2023-01-28T22:47:34.990Z,3.60
2023-01-28T22:52:36.598Z,3.55
2023-01-28T22:57:38.100Z,3.55
2023-01-28T23:02:39.710Z,3.55
2023-01-28T23:07:41.232Z,3.52
2023-01-28T23:12:42.874Z,3.52
2023-01-28T23:18:02.780Z,3.57
2023-01-28T23:23:22.865Z,3.48
2023-01-28T23:28:24.359Z,3.49
2023-01-28T23:33:26.363Z,3.53
2023-01-28T23:38:27.886Z,3.57
2023-01-28T23:43:29.372Z,3.52
2023-01-28T23:48:30.858Z,3.45
2023-01-28T23:53:32.430Z,3.52
2023-01-28T23:58:43.068Z,3.60
